FranceFixed distance
Luchon Aneto Trail - Lat Challenge
6–7 Jul2024·2 stages
Distance
87km
Finishers
158132 men26 women
Winning time
8:29:38h
Median pace
6.74km/h
Pace distribution
158 finishers · 5.09–10.24 km/h · mean 6.93
Every finisher ran the same 87 km course, so these paces are directly comparable.
Histogram of finisher pace. 158 finishers ranged from 5.09 to 10.24 kilometres per hour, with a mean of 6.93 and a median of 6.74. The busiest band is 6.0 to 6.5 kilometres per hour, with 37 finishers.
Results
Ranks 101–150 of 158
| Rank | Runner | Time | Pace | Cat. | Placing |
|---|---|---|---|---|---|
| 101 | Bl2A / Team Hard Run | 13:40:56h | 6.36 | M35 | 93rd M · 19th M35 |
| 102 | Loire Endurance Athlét... | 13:40:57h | 6.36 | M40 | 94th M · 20th M40 |
| 103 | Athlétic Club Pays des... | 13:43:07h | 6.34 | M23 | 95th M · 25th M23 |
| 103 | 13:43:07h | 6.34 | M50 | 95th M · 8th M50 | |
| 105 | 13:43:39h | 6.34 | M55 | 97th M · 6th M55 | |
| 106 | VTT Lesneven | 13:43:47h | 6.34 | M55 | 98th M · 7th M55 |
| 107 | Loire Endurance Athlet... | 13:44:14h | 6.33 | M45 | 99th M · 17th M45 |
| 108 | 15Eme Parallèle | 13:46:49h | 6.31 | M40 | 100th M · 21st M40 |
| 109 | CA Balma | 13:47:20h | 6.31 | M40 | 101st M · 22nd M40 |
| 110 | Loire Endurance Athlét... | 13:48:30h | 6.30 | M45 | 102nd M · 18th M45 |
| 111 | *Saint-Lambert-La-Poth... | 13:52:19h | 6.27 | M50 | 103rd M · 9th M50 |
| 112 | Team PIF | 13:53:11h | 6.26 | W23 | 9th F · 5th W23 |
| 113 | Trail Boiss | 13:55:19h | 6.25 | M45 | 104th M · 19th M45 |
| 114 | 13:55:23h | 6.25 | M23 | 105th M · 26th M23 | |
| 115 | DBG | 13:56:34h | 6.24 | M50 | 106th M · 10th M50 |
| 116 | 13:58:46h | 6.22 | M40 | 107th M · 23rd M40 | |
| 117 | Rruning Castres | 14:01:11h | 6.21 | W23 | 10th F · 6th W23 |
| 118 | 14:08:28h | 6.15 | M50 | 108th M · 11th M50 | |
| 119 | 14:08:45h | 6.15 | MU23 | 109th M · 3rd MU23 | |
| 120 | les Galopins Chalossais | 14:10:21h | 6.14 | M40 | 110th M · 24th M40 |
| 120 | 14:10:21h | 6.14 | M35 | 110th M · 20th M35 | |
| 122 | Cngc | 14:12:33h | 6.12 | M23 | 112th M · 27th M23 |
| 123 | Stade Bordelais Athlét... | 14:12:53h | 6.12 | W55 | 11th F · 1st W55 |
| 124 | 14:13:06h | 6.12 | M50 | 113th M · 12th M50 | |
| 125 | 14:13:53h | 6.11 | M35 | 114th M · 21st M35 | |
| 126 | *Tournefeuille | 14:18:15h | 6.08 | M45 | 115th M · 20th M45 |
| 127 | CAF de Bordeaux | 14:21:38h | 6.06 | M60 | 116th M · 2nd M60 |
| 128 | Jogging Club Poire SUR... | 14:26:27h | 6.03 | M40 | 117th M · 25th M40 |
| 129 | CAP Bollene | 14:31:48h | 5.99 | W60 | 12th F · 1st W60 |
| 130 | CAP Bollene | 14:34:12h | 5.97 | M60 | 118th M · 3rd M60 |
| 131 | AMA Cugand | 14:39:41h | 5.93 | W55 | 13th F · 2nd W55 |
| 132 | Seméac Olympique | 14:41:08h | 5.92 | W35 | 14th F · 2nd W35 |
| 132 | Seméac Olympique | 14:41:08h | 5.92 | M35 | 119th M · 22nd M35 |
| 134 | Baladins de Jardres | 14:42:19h | 5.92 | M23 | 120th M · 28th M23 |
| 135 | Snls 44 | 14:42:28h | 5.92 | M55 | 121st M · 8th M55 |
| 136 | 14:44:26h | 5.90 | W55 | 15th F · 3rd W55 | |
| 137 | *Toulouse | 14:45:10h | 5.90 | W35 | 16th F · 3rd W35 |
| 138 | Courir Fonsegrives | 14:58:03h | 5.81 | M65 | 122nd M · 1st M65 |
| 139 | Team Rrunning Castres | 14:59:44h | 5.80 | W40 | 17th F · 3rd W40 |
| 140 | 15:05:34h | 5.76 | M50 | 123rd M · 13th M50 | |
| 141 | Airbus Running | 15:09:42h | 5.74 | M23 | 124th M · 29th M23 |
| 142 | Airbus Running | 15:09:44h | 5.74 | W23 | 18th F · 7th W23 |
| 143 | Castets Team Trail | 15:19:37h | 5.68 | M50 | 125th M · 14th M50 |
| 144 | Jogging Club | 15:22:11h | 5.66 | W40 | 19th F · 4th W40 |
| 145 | 15:23:06h | 5.66 | M35 | 126th M · 23rd M35 | |
| 146 | Luchon Haute Montagne | 15:26:14h | 5.64 | W35 | 20th F · 4th W35 |
| 147 | Team Rigaux | 15:28:26h | 5.62 | M50 | 127th M · 15th M50 |
| 148 | 15:33:10h | 5.59 | M55 | 128th M · 9th M55 | |
| 149 | 15:35:00h | 5.58 | W45 | 21st F · 2nd W45 | |
| 150 | *Saumur | 15:39:06h | 5.56 | W23 | 22nd F · 8th W23 |
- 101Bl2A / Team Hard Run93rd M · 19th M35Time13:40:56hPace6.36Cat.M35
- 102Loire Endurance Athlét...94th M · 20th M40Time13:40:57hPace6.36Cat.M40
- 103Athlétic Club Pays des...95th M · 25th M23Time13:43:07hPace6.34Cat.M23
- 10395th M · 8th M50Time13:43:07hPace6.34Cat.M50
- 10597th M · 6th M55Time13:43:39hPace6.34Cat.M55
- 106VTT Lesneven98th M · 7th M55Time13:43:47hPace6.34Cat.M55
- 107Loire Endurance Athlet...99th M · 17th M45Time13:44:14hPace6.33Cat.M45
- 10815Eme Parallèle100th M · 21st M40Time13:46:49hPace6.31Cat.M40
- 109CA Balma101st M · 22nd M40Time13:47:20hPace6.31Cat.M40
- 110Loire Endurance Athlét...102nd M · 18th M45Time13:48:30hPace6.30Cat.M45
- 111*Saint-Lambert-La-Poth...103rd M · 9th M50Time13:52:19hPace6.27Cat.M50
- 112Team PIF9th F · 5th W23Time13:53:11hPace6.26Cat.W23
- 113Trail Boiss104th M · 19th M45Time13:55:19hPace6.25Cat.M45
- 114105th M · 26th M23Time13:55:23hPace6.25Cat.M23
- 115DBG106th M · 10th M50Time13:56:34hPace6.24Cat.M50
- 116107th M · 23rd M40Time13:58:46hPace6.22Cat.M40
- 117Rruning Castres10th F · 6th W23Time14:01:11hPace6.21Cat.W23
- 118108th M · 11th M50Time14:08:28hPace6.15Cat.M50
- 119109th M · 3rd MU23Time14:08:45hPace6.15Cat.MU23
- 120les Galopins Chalossais110th M · 24th M40Time14:10:21hPace6.14Cat.M40
- 120110th M · 20th M35Time14:10:21hPace6.14Cat.M35
- 122Cngc112th M · 27th M23Time14:12:33hPace6.12Cat.M23
- 123Stade Bordelais Athlét...11th F · 1st W55Time14:12:53hPace6.12Cat.W55
- 124113th M · 12th M50Time14:13:06hPace6.12Cat.M50
- 125114th M · 21st M35Time14:13:53hPace6.11Cat.M35
- 126*Tournefeuille115th M · 20th M45Time14:18:15hPace6.08Cat.M45
- 127CAF de Bordeaux116th M · 2nd M60Time14:21:38hPace6.06Cat.M60
- 128Jogging Club Poire SUR...117th M · 25th M40Time14:26:27hPace6.03Cat.M40
- 129CAP Bollene12th F · 1st W60Time14:31:48hPace5.99Cat.W60
- 130CAP Bollene118th M · 3rd M60Time14:34:12hPace5.97Cat.M60
- 131AMA Cugand13th F · 2nd W55Time14:39:41hPace5.93Cat.W55
- 132Seméac Olympique14th F · 2nd W35Time14:41:08hPace5.92Cat.W35
- 132Seméac Olympique119th M · 22nd M35Time14:41:08hPace5.92Cat.M35
- 134Baladins de Jardres120th M · 28th M23Time14:42:19hPace5.92Cat.M23
- 135Snls 44121st M · 8th M55Time14:42:28hPace5.92Cat.M55
- 13615th F · 3rd W55Time14:44:26hPace5.90Cat.W55
- 137*Toulouse16th F · 3rd W35Time14:45:10hPace5.90Cat.W35
- 138Courir Fonsegrives122nd M · 1st M65Time14:58:03hPace5.81Cat.M65
- 139Team Rrunning Castres17th F · 3rd W40Time14:59:44hPace5.80Cat.W40
- 140123rd M · 13th M50Time15:05:34hPace5.76Cat.M50
- 141Airbus Running124th M · 29th M23Time15:09:42hPace5.74Cat.M23
- 142Airbus Running18th F · 7th W23Time15:09:44hPace5.74Cat.W23
- 143Castets Team Trail125th M · 14th M50Time15:19:37hPace5.68Cat.M50
- 144Jogging Club19th F · 4th W40Time15:22:11hPace5.66Cat.W40
- 145126th M · 23rd M35Time15:23:06hPace5.66Cat.M35
- 146Luchon Haute Montagne20th F · 4th W35Time15:26:14hPace5.64Cat.W35
- 147Team Rigaux127th M · 15th M50Time15:28:26hPace5.62Cat.M50
- 148128th M · 9th M55Time15:33:10hPace5.59Cat.M55
- 14921st F · 2nd W45Time15:35:00hPace5.58Cat.W45
- 150*Saumur22nd F · 8th W23Time15:39:06hPace5.56Cat.W23
Showing ranks 101–150 of 158